Observation data for Amherst on 07/05/2020      Previous  Date  Next       Current Mesonet Observations  Soil Data  Daily Summary Page  Observations in Plain Language
KAMH 050500Z 10011KT 24/16 A3003 RMK A01 T02390161  RH  065%=      5-min Rain = 0
KAMH 050505Z 10010KT 24/16 A3003 RMK A01 T02390161  RH  065%=      5-min Rain = 0
KAMH 050510Z 10010KT 24/16 A3003 RMK A01 T02390161  RH  065%=      5-min Rain = 0
KAMH 050515Z 10011KT 24/16 A3003 RMK A01 T02400161  RH  064%=      5-min Rain = 0
KAMH 050520Z 10009KT 24/16 A3003 RMK A01 T02400161  RH  065%=      5-min Rain = 0
KAMH 050525Z 10009KT 24/16 A3003 RMK A01 T02390161  RH  065%=      5-min Rain = 0
KAMH 050530Z 09009KT 24/16 A3003 RMK A01 T02390160  RH  064%=      5-min Rain = 0
KAMH 050535Z 09007KT 24/16 A3004 RMK A01 T02390160  RH  064%=      5-min Rain = 0
KAMH 050540Z 07006KT 24/16 A3005 RMK A01 T02390160  RH  064%=      5-min Rain = 0
KAMH 050545Z 35011G21KT 24/16 A3007 RMK A01 T02390160  RH  064%=      5-min Rain = 0
KAMH 050550Z 33019G24KT 24/17 A3009 RMK A01 T02400166  RH  067%=      5-min Rain = 0
KAMH 050555Z 34022G27KT 24/17 A3009 RMK A01 T02410170  RH  068%=      5-min Rain = 0
KAMH 050600Z 34021G26KT 24/17 A301 RMK A01 T02430169  RH  067%=      5-min Rain = 0
KAMH 050605Z 34021G30KT 24/17 A3011 RMK A01 T02430166  RH  065%=      5-min Rain = 0
KAMH 050610Z 33026G37KT 24/16 A3011 RMK A01 T02390164  RH  066%=      5-min Rain = 0
KAMH 050615Z 33022G29KT 23/17 A3013 RMK A01 T02310165  RH  070%=      5-min Rain = 0
KAMH 050620Z 33019G25KT 22/17 A3013 RMK A01 T02240168  RH  074%=      5-min Rain = 0
KAMH 050625Z 32020G25KT 22/17 A3013 RMK A01 T02200172  RH  078%=      5-min Rain = 0
KAMH 050630Z 32021G26KT 21/18 A3014 RMK A01 T02130180  RH  085%=      5-min Rain = 0
KAMH 050635Z 32020G25KT 21/18 A3014 RMK A01 T02090180  RH  088%=      5-min Rain = 0.02
KAMH 050640Z 33022G28KT 21/18 A3014 RMK A01 T02050176  RH  088%=      5-min Rain = 0.01
KAMH 050645Z 33022G28KT 20/17 A3014 RMK A01 T02030170  RH  085%=      5-min Rain = 0.02
KAMH 050650Z 34020KT 20/17 A3014 RMK A01 T02000170  RH  087%=      5-min Rain = 0.02
KAMH 050655Z 34017G22KT 20/17 A3015 RMK A01 T01990171  RH  088%=      5-min Rain = 0.01
KAMH 050700Z 35017KT 20/17 A3015 RMK A01 T01980170  RH  088%=      5-min Rain = 0.01
KAMH 050705Z 35017KT 20/17 A3014 RMK A01 T01960169  RH  089%=      5-min Rain = 0.01
KAMH 050710Z 00015G20KT 19/17 A3014 RMK A01 T01930166  RH  089%=      5-min Rain = 0.02
KAMH 050715Z 00013KT 19/17 A3014 RMK A01 T01910165  RH  089%=      5-min Rain = 0.01
KAMH 050720Z 36013KT 19/17 A3014 RMK A01 T01890165  RH  090%=      5-min Rain = 0.01
KAMH 050725Z 00012KT 19/16 A3014 RMK A01 T01890164  RH  090%=      5-min Rain = 0.01
KAMH 050730Z 35010G15KT 19/17 A3015 RMK A01 T01890166  RH  091%=      5-min Rain = 0.01
KAMH 050735Z 34013KT 19/17 A3015 RMK A01 T01910166  RH  089%=      5-min Rain = 0.02
KAMH 050740Z 35012KT 19/17 A3015 RMK A01 T01920165  RH  088%=      5-min Rain = 0.01
KAMH 050745Z 35011KT 19/17 A3015 RMK A01 T01930165  RH  089%=      5-min Rain = 0
KAMH 050750Z 36011KT 19/17 A3014 RMK A01 T01920166  RH  089%=      5-min Rain = 0.01
KAMH 050755Z 02010KT 19/17 A3014 RMK A01 T01920165  RH  088%=      5-min Rain = 0.01
KAMH 050800Z 01009KT 19/16 A3014 RMK A01 T01920164  RH  088%=      5-min Rain = 0
KAMH 050805Z 01007KT 20/16 A3014 RMK A01 T01950162  RH  085%=      5-min Rain = 0
KAMH 050810Z 00006KT 20/16 A3014 RMK A01 T01980161  RH  083%=      5-min Rain = 0.01
KAMH 050815Z 33005KT 20/17 A3014 RMK A01 T01980167  RH  086%=      5-min Rain = 0
KAMH 050820Z 33004KT 20/17 A3014 RMK A01 T01960168  RH  088%=      5-min Rain = 0.01
KAMH 050825Z 32002KT 20/17 A3014 RMK A01 T01960168  RH  088%=      5-min Rain = 0
KAMH 050830Z 20002KT 20/17 A3014 RMK A01 T01970170  RH  089%=      5-min Rain = 0.01
KAMH 050835Z 21002KT 20/17 A3014 RMK A01 T01980171  RH  089%=      5-min Rain = 0.01
KAMH 050840Z 17002KT 20/17 A3013 RMK A01 T01980172  RH  089%=      5-min Rain = 0
KAMH 050845Z 19003KT 20/17 A3013 RMK A01 T01990173  RH  090%=      5-min Rain = 0
KAMH 050850Z 19005KT 20/17 A3012 RMK A01 T01990174  RH  090%=      5-min Rain = 0
KAMH 050855Z 20008KT 20/17 A3012 RMK A01 T01990172  RH  089%=      5-min Rain = 0
KAMH 050900Z 21009KT 20/17 A3012 RMK A01 T02020171  RH  087%=      5-min Rain = 0
KAMH 050905Z 21010KT 21/16 A3012 RMK A01 T02060164  RH  080%=      5-min Rain = 0
KAMH 050910Z 20009G15KT 21/16 A3011 RMK A01 T02060162  RH  079%=      5-min Rain = 0
KAMH 050915Z 22012G17KT 20/16 A301 RMK A01 T02040163  RH  082%=      5-min Rain = 0.01
KAMH 050920Z 21012KT 21/16 A3009 RMK A01 T02050161  RH  079%=      5-min Rain = 0
KAMH 050925Z 20011KT 21/16 A3008 RMK A01 T02070158  RH  077%=      5-min Rain = 0.01
KAMH 050930Z 18013KT 21/16 A3006 RMK A01 T02060160  RH  078%=      5-min Rain = 0
KAMH 050935Z 16012KT 20/16 A3004 RMK A01 T02040160  RH  079%=      5-min Rain = 0
KAMH 050940Z 15012KT 21/16 A3003 RMK A01 T02050157  RH  077%=      5-min Rain = 0
KAMH 050945Z 15011KT 21/15 A3003 RMK A01 T02090151  RH  073%=      5-min Rain = 0
KAMH 050950Z 16011KT 21/16 A3002 RMK A01 T02090155  RH  075%=      5-min Rain = 0
KAMH 050955Z 15010KT 21/16 A3001 RMK A01 T02060158  RH  077%=      5-min Rain = 0
KAMH 051000Z 16013KT 21/16 A30 RMK A01 T02060156  RH  077%=      5-min Rain = 0
KAMH 051005Z 17013KT 21/16 A30 RMK A01 T02060156  RH  077%=      5-min Rain = 0
KAMH 051010Z 17013KT 21/15 A30 RMK A01 T02070153  RH  075%=      5-min Rain = 0
KAMH 051015Z 19011KT 21/15 A30 RMK A01 T02070154  RH  075%=      5-min Rain = 0
KAMH 051020Z 18008KT 21/16 A30 RMK A01 T02080157  RH  076%=      5-min Rain = 0
KAMH 051025Z 19006KT 21/16 A3001 RMK A01 T02080158  RH  076%=      5-min Rain = 0
KAMH 051030Z 36008G14KT 21/16 A3003 RMK A01 T02080159  RH  077%=      5-min Rain = 0
KAMH 051035Z 34008G21KT 21/16 A3002 RMK A01 T02070156  RH  077%=      5-min Rain = 0
KAMH 051040Z 16007G12KT 22/14 A3002 RMK A01 T02200144  RH  064%=      5-min Rain = 0
KAMH 051045Z 02006G11KT 22/14 A3003 RMK A01 T02220144  RH  064%=      5-min Rain = 0
KAMH 051050Z 03009KT 21/16 A3003 RMK A01 T02060158  RH  077%=      5-min Rain = 0
KAMH 051055Z 03005KT 21/16 A3003 RMK A01 T02050156  RH  077%=      5-min Rain = 0
KAMH 051100Z 01008KT 20/16 A3003 RMK A01 T02020159  RH  080%=      5-min Rain = 0
KAMH 051105Z 03007KT 20/16 A3002 RMK A01 T02010161  RH  081%=      5-min Rain = 0
KAMH 051110Z 04006KT 20/16 A3002 RMK A01 T01980160  RH  083%=      5-min Rain = 0
KAMH 051115Z 04006KT 20/16 A3002 RMK A01 T01980158  RH  081%=      5-min Rain = 0
KAMH 051120Z 06005KT 20/16 A3001 RMK A01 T01990157  RH  080%=      5-min Rain = 0
KAMH 051125Z 07005KT 20/16 A3001 RMK A01 T01980160  RH  082%=      5-min Rain = 0
KAMH 051130Z 05004KT 20/16 A3001 RMK A01 T01960160  RH  083%=      5-min Rain = 0
KAMH 051135Z 04007KT 20/16 A3001 RMK A01 T01990157  RH  080%=      5-min Rain = 0
KAMH 051140Z 03007KT 20/16 A3001 RMK A01 T02000158  RH  081%=      5-min Rain = 0
KAMH 051145Z 03005KT 20/16 A3001 RMK A01 T02000158  RH  080%=      5-min Rain = 0
KAMH 051150Z 04004KT 20/16 A3001 RMK A01 T01990157  RH  081%=      5-min Rain = 0
KAMH 051155Z 03007KT 20/16 A3001 RMK A01 T02000156  RH  080%=      5-min Rain = 0
KAMH 051200Z 02008KT 20/16 A3001 RMK A01 T01990159  RH  081%=      5-min Rain = 0
KAMH 051205Z 01006KT 20/16 A3001 RMK A01 T01990160  RH  082%=      5-min Rain = 0
KAMH 051210Z 01004KT 20/16 A3002 RMK A01 T02000163  RH  083%=      5-min Rain = 0
KAMH 051215Z 35004KT 20/16 A3002 RMK A01 T01980164  RH  085%=      5-min Rain = 0
KAMH 051220Z 32005KT 20/17 A3002 RMK A01 T01950165  RH  087%=      5-min Rain = 0
KAMH 051225Z 30004KT 19/17 A3002 RMK A01 T01940166  RH  088%=      5-min Rain = 0
KAMH 051230Z 31004KT 20/17 A3002 RMK A01 T01950169  RH  089%=      5-min Rain = 0
KAMH 051235Z 32006KT 20/17 A3003 RMK A01 T01970169  RH  088%=      5-min Rain = 0
KAMH 051240Z 32006KT 20/17 A3003 RMK A01 T01980170  RH  088%=      5-min Rain = 0
KAMH 051245Z 31007KT 20/17 A3003 RMK A01 T02000172  RH  088%=      5-min Rain = 0
KAMH 051250Z 30007KT 20/17 A3004 RMK A01 T02010172  RH  088%=      5-min Rain = 0
KAMH 051255Z 32005KT 20/17 A3004 RMK A01 T02030172  RH  087%=      5-min Rain = 0
KAMH 051300Z 32007KT 20/17 A3004 RMK A01 T02040173  RH  086%=      5-min Rain = 0
KAMH 051305Z 30007KT 21/17 A3004 RMK A01 T02060174  RH  086%=      5-min Rain = 0
KAMH 051310Z 31007KT 21/17 A3004 RMK A01 T02070174  RH  086%=      5-min Rain = 0
KAMH 051315Z 32008KT 21/18 A3004 RMK A01 T02090176  RH  086%=      5-min Rain = 0
KAMH 051320Z 32009KT 21/18 A3005 RMK A01 T02090175  RH  085%=      5-min Rain = 0
KAMH 051325Z 33009KT 21/18 A3005 RMK A01 T02100175  RH  085%=      5-min Rain = 0
KAMH 051330Z 33008KT 21/17 A3005 RMK A01 T02100173  RH  084%=      5-min Rain = 0
KAMH 051335Z 33008KT 21/18 A3005 RMK A01 T02120175  RH  083%=      5-min Rain = 0
KAMH 051340Z 33007KT 21/18 A3006 RMK A01 T02140175  RH  082%=      5-min Rain = 0
KAMH 051345Z 35005KT 22/18 A3006 RMK A01 T02150176  RH  083%=      5-min Rain = 0
KAMH 051350Z 36006KT 22/18 A3007 RMK A01 T02170175  RH  081%=      5-min Rain = 0
KAMH 051355Z 00005KT 22/18 A3007 RMK A01 T02180177  RH  082%=      5-min Rain = 0
KAMH 051400Z 01004KT 22/18 A3007 RMK A01 T02190176  RH  081%=      5-min Rain = 0
KAMH 051405Z 02004KT 22/18 A3008 RMK A01 T02220177  RH  079%=      5-min Rain = 0
KAMH 051410Z 02005KT 23/18 A3008 RMK A01 T02250175  RH  077%=      5-min Rain = 0
KAMH 051415Z 05006KT 23/18 A3008 RMK A01 T02280175  RH  076%=      5-min Rain = 0
KAMH 051420Z 07006KT 23/18 A3008 RMK A01 T02270175  RH  077%=      5-min Rain = 0
KAMH 051425Z 07005KT 23/18 A3008 RMK A01 T02300177  RH  076%=      5-min Rain = 0
KAMH 051430Z 08006KT 23/18 A3009 RMK A01 T02310179  RH  076%=      5-min Rain = 0
KAMH 051435Z 08004KT 23/18 A3009 RMK A01 T02320179  RH  076%=      5-min Rain = 0
KAMH 051440Z 07005KT 23/18 A3009 RMK A01 T02340181  RH  076%=      5-min Rain = 0
KAMH 051445Z 09006KT 23/18 A3009 RMK A01 T02340177  RH  074%=      5-min Rain = 0
KAMH 051450Z 09005KT 23/18 A3009 RMK A01 T02340178  RH  075%=      5-min Rain = 0
KAMH 051455Z 08006KT 24/17 A3009 RMK A01 T02350174  RH  072%=      5-min Rain = 0
KAMH 051500Z 10006KT 23/17 A3009 RMK A01 T02340173  RH  072%=      5-min Rain = 0
KAMH 051505Z 09006KT 24/17 A3009 RMK A01 T02370173  RH  071%=      5-min Rain = 0
KAMH 051510Z 06006KT 24/17 A3009 RMK A01 T02380171  RH  070%=      5-min Rain = 0
KAMH 051515Z 08006G11KT 24/17 A3009 RMK A01 T02370173  RH  071%=      5-min Rain = 0
KAMH 051520Z 07006KT 24/17 A3009 RMK A01 T02380172  RH  070%=      5-min Rain = 0
KAMH 051525Z 05006KT 24/17 A3009 RMK A01 T02390170  RH  068%=      5-min Rain = 0
KAMH 051530Z 05005KT 24/17 A3009 RMK A01 T02410171  RH  068%=      5-min Rain = 0
KAMH 051535Z 06005KT 24/18 A3009 RMK A01 T02400175  RH  071%=      5-min Rain = 0
KAMH 051540Z 08006KT 24/18 A3009 RMK A01 T02420176  RH  070%=      5-min Rain = 0
KAMH 051545Z 07006KT 24/17 A3009 RMK A01 T02410171  RH  068%=      5-min Rain = 0
KAMH 051550Z 09006KT 24/16 A3009 RMK A01 T02400164  RH  065%=      5-min Rain = 0
KAMH 051555Z 09003KT 24/16 A3009 RMK A01 T02370164  RH  067%=      5-min Rain = 0
KAMH 051600Z 07005KT 24/16 A3009 RMK A01 T02420162  RH  064%=      5-min Rain = 0
KAMH 051605Z 09005KT 25/16 A3009 RMK A01 T02460163  RH  063%=      5-min Rain = 0
KAMH 051610Z 09006KT 25/17 A3009 RMK A01 T02490166  RH  063%=      5-min Rain = 0
KAMH 051615Z 08005KT 25/16 A3009 RMK A01 T02520161  RH  060%=      5-min Rain = 0
KAMH 051620Z 05007KT 25/16 A3009 RMK A01 T02520162  RH  060%=      5-min Rain = 0
KAMH 051625Z 08007KT 25/16 A3009 RMK A01 T02540160  RH  059%=      5-min Rain = 0
KAMH 051630Z 08006KT 26/16 A3009 RMK A01 T02590162  RH  058%=      5-min Rain = 0
KAMH 051635Z 09009KT 26/16 A3009 RMK A01 T02630160  RH  056%=      5-min Rain = 0
KAMH 051640Z 09008KT 26/16 A3009 RMK A01 T02640157  RH  054%=      5-min Rain = 0
KAMH 051645Z 08008KT 27/15 A3009 RMK A01 T02650151  RH  052%=      5-min Rain = 0
KAMH 051650Z 08008KT 27/16 A3009 RMK A01 T02680156  RH  052%=      5-min Rain = 0
KAMH 051655Z 08008G13KT 27/16 A3009 RMK A01 T02690158  RH  053%=      5-min Rain = 0
KAMH 051700Z 08009KT 27/16 A3009 RMK A01 T02690158  RH  053%=      5-min Rain = 0
KAMH 051705Z 07008KT 27/16 A3009 RMK A01 T02720161  RH  053%=      5-min Rain = 0
KAMH 051710Z 07009KT 27/16 A3008 RMK A01 T02730162  RH  053%=      5-min Rain = 0
KAMH 051715Z 04012KT 28/16 A3008 RMK A01 T02750156  RH  050%=      5-min Rain = 0
KAMH 051720Z 06010G15KT 28/15 A3008 RMK A01 T02760147  RH  047%=      5-min Rain = 0
KAMH 051725Z 03010KT 28/15 A3008 RMK A01 T02790146  RH  046%=      5-min Rain = 0
KAMH 051730Z 07010KT 28/15 A3008 RMK A01 T02840151  RH  046%=      5-min Rain = 0
KAMH 051735Z 07010KT 29/15 A3008 RMK A01 T02850151  RH  046%=      5-min Rain = 0
KAMH 051740Z 08010KT 28/14 A3008 RMK A01 T02810143  RH  045%=      5-min Rain = 0
KAMH 051745Z 08010G15KT 28/15 A3008 RMK A01 T02800146  RH  046%=      5-min Rain = 0
KAMH 051750Z 06009G14KT 28/15 A3008 RMK A01 T02820150  RH  047%=      5-min Rain = 0
KAMH 051755Z 07010G16KT 28/15 A3008 RMK A01 T02840148  RH  045%=      5-min Rain = 0
KAMH 051800Z 08008G13KT 29/14 A3007 RMK A01 T02860144  RH  044%=      5-min Rain = 0
KAMH 051805Z 06009G14KT 28/15 A3007 RMK A01 T02830152  RH  047%=      5-min Rain = 0
KAMH 051810Z 06009G15KT 28/15 A3007 RMK A01 T02820147  RH  046%=      5-min Rain = 0
KAMH 051815Z 05009KT 29/15 A3007 RMK A01 T02870146  RH  044%=      5-min Rain = 0
KAMH 051820Z 06009G14KT 29/15 A3007 RMK A01 T02870145  RH  044%=      5-min Rain = 0
KAMH 051825Z 06008G13KT 29/15 A3007 RMK A01 T02870148  RH  045%=      5-min Rain = 0
KAMH 051830Z 06009G16KT 29/15 A3007 RMK A01 T02890150  RH  045%=      5-min Rain = 0
KAMH 051835Z 07009G14KT 29/15 A3006 RMK A01 T02890152  RH  045%=      5-min Rain = 0
KAMH 051840Z 07009G15KT 29/16 A3006 RMK A01 T02930155  RH  045%=      5-min Rain = 0
KAMH 051845Z 08010G15KT 29/16 A3006 RMK A01 T02900155  RH  046%=      5-min Rain = 0
KAMH 051850Z 07012G18KT 29/16 A3006 RMK A01 T02910156  RH  046%=      5-min Rain = 0
KAMH 051855Z 06011KT 29/16 A3006 RMK A01 T02920155  RH  045%=      5-min Rain = 0
KAMH 051900Z 07011G16KT 29/16 A3006 RMK A01 T02930157  RH  046%=      5-min Rain = 0
KAMH 051905Z 08010G15KT 29/16 A3005 RMK A01 T02930155  RH  045%=      5-min Rain = 0
KAMH 051910Z 12009KT 30/15 A3005 RMK A01 T02990148  RH  042%=      5-min Rain = 0
KAMH 051915Z 10007KT 30/15 A3005 RMK A01 T02990146  RH  041%=      5-min Rain = 0
KAMH 051920Z 06008KT 30/15 A3005 RMK A01 T03000146  RH  041%=      5-min Rain = 0
KAMH 051925Z 06008G14KT 30/15 A3005 RMK A01 T03000149  RH  042%=      5-min Rain = 0
KAMH 051930Z 05007KT 30/15 A3005 RMK A01 T03000151  RH  042%=      5-min Rain = 0
KAMH 051935Z 12008KT 30/15 A3005 RMK A01 T03000149  RH  042%=      5-min Rain = 0
KAMH 051940Z 12005G10KT 30/14 A3005 RMK A01 T02980142  RH  040%=      5-min Rain = 0
KAMH 051945Z 10007G12KT 30/15 A3004 RMK A01 T02980145  RH  041%=      5-min Rain = 0
KAMH 051950Z 10007G13KT 30/15 A3004 RMK A01 T03030146  RH  040%=      5-min Rain = 0
KAMH 051955Z 08006KT 30/15 A3004 RMK A01 T03040145  RH  040%=      5-min Rain = 0
KAMH 052000Z 11007G12KT 30/15 A3004 RMK A01 T03040145  RH  040%=      5-min Rain = 0
KAMH 052005Z 15003KT 30/15 A3003 RMK A01 T03040145  RH  040%=      5-min Rain = 0
KAMH 052010Z 11006KT 31/15 A3003 RMK A01 T03080147  RH  039%=      5-min Rain = 0
KAMH 052015Z 09009G14KT 31/15 A3003 RMK A01 T03070149  RH  040%=      5-min Rain = 0
KAMH 052020Z 09006G12KT 31/15 A3003 RMK A01 T03070145  RH  039%=      5-min Rain = 0
KAMH 052025Z 09006KT 31/14 A3002 RMK A01 T03050144  RH  039%=      5-min Rain = 0
KAMH 052030Z 11008KT 31/15 A3002 RMK A01 T03090146  RH  039%=      5-min Rain = 0
KAMH 052035Z 10006G12KT 31/15 A3002 RMK A01 T03080146  RH  039%=      5-min Rain = 0
KAMH 052040Z 12010KT 31/15 A3002 RMK A01 T03090148  RH  039%=      5-min Rain = 0
KAMH 052045Z 14004G10KT 30/14 A3002 RMK A01 T03030143  RH  039%=      5-min Rain = 0
KAMH 052050Z 08003KT 30/14 A3002 RMK A01 T03040141  RH  038%=      5-min Rain = 0
KAMH 052055Z 06004G10KT 31/15 A3001 RMK A01 T03110145  RH  038%=      5-min Rain = 0
KAMH 052100Z 16009KT 32/14 A3001 RMK A01 T03200144  RH  036%=      5-min Rain = 0
KAMH 052105Z 17006KT 32/14 A30 RMK A01 T03160144  RH  037%=      5-min Rain = 0
KAMH 052110Z 05004KT 31/14 A30 RMK A01 T03130142  RH  037%=      5-min Rain = 0
KAMH 052115Z 11004G10KT 31/14 A30 RMK A01 T03110143  RH  038%=      5-min Rain = 0
KAMH 052120Z 09006G12KT 31/15 A30 RMK A01 T03140145  RH  037%=      5-min Rain = 0
KAMH 052125Z 16003KT 32/14 A2999 RMK A01 T03150144  RH  037%=      5-min Rain = 0
KAMH 052130Z 12004KT 32/15 A2999 RMK A01 T03200146  RH  037%=      5-min Rain = 0
KAMH 052135Z 14005KT 33/15 A2999 RMK A01 T03270145  RH  035%=      5-min Rain = 0
KAMH 052140Z 13003G10KT 32/14 A2999 RMK A01 T03240141  RH  034%=      5-min Rain = 0
KAMH 052145Z 13007G15KT 32/14 A2999 RMK A01 T03230142  RH  035%=      5-min Rain = 0
KAMH 052150Z 12006KT 32/14 A2998 RMK A01 T03210140  RH  035%=      5-min Rain = 0
KAMH 052155Z 10005G10KT 32/14 A2998 RMK A01 T03170139  RH  036%=      5-min Rain = 0
KAMH 052200Z 09003G8KT 32/14 A2998 RMK A01 T03180139  RH  035%=      5-min Rain = 0
KAMH 052205Z 11006KT 32/14 A2997 RMK A01 T03210141  RH  035%=      5-min Rain = 0
KAMH 052210Z 13008G22KT 33/14 A2997 RMK A01 T03250141  RH  034%=      5-min Rain = 0
KAMH 052215Z 11007G12KT 32/14 A2997 RMK A01 T03210141  RH  035%=      5-min Rain = 0
KAMH 052220Z 03003KT 32/14 A2997 RMK A01 T03230140  RH  034%=      5-min Rain = 0
KAMH 052225Z 09007G17KT 32/14 A2997 RMK A01 T03230141  RH  035%=      5-min Rain = 0
KAMH 052230Z 10006G13KT 32/14 A2997 RMK A01 T03220140  RH  035%=      5-min Rain = 0
KAMH 052235Z 02003KT 33/14 A2997 RMK A01 T03260141  RH  034%=      5-min Rain = 0
KAMH 052240Z 07006KT 33/14 A2996 RMK A01 T03270140  RH  034%=      5-min Rain = 0
KAMH 052245Z 07006G11KT 32/14 A2996 RMK A01 T03240139  RH  034%=      5-min Rain = 0
KAMH 052250Z 06008KT 33/14 A2997 RMK A01 T03260140  RH  034%=      5-min Rain = 0
KAMH 052255Z 06009KT 33/14 A2996 RMK A01 T03250140  RH  034%=      5-min Rain = 0
KAMH 052300Z 07007KT 33/14 A2996 RMK A01 T03270140  RH  034%=      5-min Rain = 0
KAMH 052305Z 05005KT 33/14 A2996 RMK A01 T03270139  RH  033%=      5-min Rain = 0
KAMH 052310Z 05002KT 33/14 A2995 RMK A01 T03270139  RH  033%=      5-min Rain = 0
KAMH 052315Z 10008KT 33/14 A2995 RMK A01 T03310139  RH  033%=      5-min Rain = 0
KAMH 052320Z 07006KT 33/14 A2995 RMK A01 T03320141  RH  033%=      5-min Rain = 0
KAMH 052325Z 07009KT 33/14 A2995 RMK A01 T03310142  RH  033%=      5-min Rain = 0
KAMH 052330Z 09006G11KT 33/14 A2995 RMK A01 T03280142  RH  034%=      5-min Rain = 0
KAMH 052335Z 09008KT 33/14 A2994 RMK A01 T03280140  RH  033%=      5-min Rain = 0
KAMH 052340Z 06008KT 33/14 A2994 RMK A01 T03250140  RH  034%=      5-min Rain = 0
KAMH 052345Z 07006G14KT 32/14 A2994 RMK A01 T03240139  RH  034%=      5-min Rain = 0
KAMH 052350Z 10009KT 32/14 A2994 RMK A01 T03220140  RH  035%=      5-min Rain = 0
KAMH 052355Z 11006KT 32/14 A2995 RMK A01 T03210139  RH  035%=      5-min Rain = 0
KAMH 060000Z 06007KT 32/14 A2995 RMK A01 T03210143  RH  035%=      5-min Rain = 0
KAMH 060005Z 06009KT 32/14 A2994 RMK A01 T03220143  RH  035%=      5-min Rain = 0
KAMH 060010Z 05008KT 32/14 A2995 RMK A01 T03190142  RH  036%=      5-min Rain = 0
KAMH 060015Z 04009KT 32/14 A2995 RMK A01 T03170143  RH  036%=      5-min Rain = 0
KAMH 060020Z 04007KT 32/15 A2995 RMK A01 T03220146  RH  036%=      5-min Rain = 0
KAMH 060025Z 03008KT 32/14 A2995 RMK A01 T03220144  RH  036%=      5-min Rain = 0
KAMH 060030Z 07008G13KT 32/14 A2995 RMK A01 T03230144  RH  035%=      5-min Rain = 0
KAMH 060035Z 07012KT 32/14 A2995 RMK A01 T03210143  RH  036%=      5-min Rain = 0
KAMH 060040Z 07010KT 32/14 A2995 RMK A01 T03180142  RH  036%=      5-min Rain = 0
KAMH 060045Z 07011KT 32/14 A2995 RMK A01 T03170143  RH  036%=      5-min Rain = 0
KAMH 060050Z 06010KT 31/14 A2995 RMK A01 T03140142  RH  037%=      5-min Rain = 0
KAMH 060055Z 06009KT 31/14 A2995 RMK A01 T03120142  RH  037%=      5-min Rain = 0
KAMH 060100Z 06009KT 31/14 A2995 RMK A01 T03090142  RH  038%=      5-min Rain = 0
KAMH 060105Z 06009KT 31/14 A2995 RMK A01 T03050141  RH  039%=      5-min Rain = 0
KAMH 060110Z 06008KT 30/14 A2996 RMK A01 T03030142  RH  039%=      5-min Rain = 0
KAMH 060115Z 05009KT 30/14 A2996 RMK A01 T03000144  RH  040%=      5-min Rain = 0
KAMH 060120Z 04009KT 30/15 A2996 RMK A01 T02960146  RH  042%=      5-min Rain = 0
KAMH 060125Z 04009KT 29/15 A2996 RMK A01 T02940147  RH  043%=      5-min Rain = 0
KAMH 060130Z 05009KT 29/15 A2997 RMK A01 T02910148  RH  044%=      5-min Rain = 0
KAMH 060135Z 05008KT 29/15 A2997 RMK A01 T02890150  RH  045%=      5-min Rain = 0
KAMH 060140Z 05007KT 29/15 A2997 RMK A01 T02870150  RH  045%=      5-min Rain = 0
KAMH 060145Z 06006KT 28/15 A2998 RMK A01 T02840152  RH  047%=      5-min Rain = 0
KAMH 060150Z 08003KT 28/15 A2998 RMK A01 T02830153  RH  047%=      5-min Rain = 0
KAMH 060155Z 10003KT 28/15 A2998 RMK A01 T02810152  RH  048%=      5-min Rain = 0
KAMH 060200Z 12005KT 28/15 A2998 RMK A01 T02760153  RH  049%=      5-min Rain = 0
KAMH 060205Z 13003KT 27/16 A2998 RMK A01 T02730155  RH  051%=      5-min Rain = 0
KAMH 060210Z 18006KT 27/16 A2999 RMK A01 T02690157  RH  053%=      5-min Rain = 0
KAMH 060215Z 21010KT 27/16 A30 RMK A01 T02690158  RH  053%=      5-min Rain = 0
KAMH 060220Z 21011G17KT 27/16 A30 RMK A01 T02660157  RH  053%=      5-min Rain = 0
KAMH 060225Z 21008G14KT 27/15 A3001 RMK A01 T02680147  RH  049%=      5-min Rain = 0
KAMH 060230Z 18008G14KT 27/15 A3001 RMK A01 T02700145  RH  048%=      5-min Rain = 0
KAMH 060235Z 20011G16KT 27/14 A3001 RMK A01 T02680137  RH  046%=      5-min Rain = 0
KAMH 060240Z 21011KT 27/13 A3001 RMK A01 T02680134  RH  046%=      5-min Rain = 0
KAMH 060245Z 21010KT 27/13 A3001 RMK A01 T02680134  RH  045%=      5-min Rain = 0
KAMH 060250Z 23012G17KT 27/13 A3002 RMK A01 T02670133  RH  046%=      5-min Rain = 0
KAMH 060255Z 28019G33KT 26/14 A3004 RMK A01 T02610136  RH  048%=      5-min Rain = 0
KAMH 060300Z 28029G41KT 24/14 A3004 RMK A01 T02380139  RH  056%=      5-min Rain = 0
KAMH 060305Z 28030G41KT 21/15 A3004 RMK A01 T02100152  RH  073%=      5-min Rain = 0
KAMH 060310Z 29030G37KT 19/16 A3006 RMK A01 T01920157  RH  084%=      5-min Rain = 0.02
KAMH 060315Z 30028G37KT 19/16 A3006 RMK A01 T01850160  RH  090%=      5-min Rain = 0.13
KAMH 060320Z 30028G34KT 18/16 A3007 RMK A01 T01820160  RH  091%=      5-min Rain = 0.16
KAMH 060325Z 31022G28KT 18/16 A3007 RMK A01 T01820158  RH  090%=      5-min Rain = 0.11
KAMH 060330Z 31019KT 18/16 A3006 RMK A01 T01820158  RH  090%=      5-min Rain = 0.06
KAMH 060335Z 33019KT 18/16 A3005 RMK A01 T01830161  RH  091%=      5-min Rain = 0.02
KAMH 060340Z 34017G22KT 18/16 A3006 RMK A01 T01840162  RH  091%=      5-min Rain = 0.01
KAMH 060345Z 33015KT 19/16 A3006 RMK A01 T01860164  RH  091%=      5-min Rain = 0.01
KAMH 060350Z 32012KT 19/16 A3005 RMK A01 T01870164  RH  091%=      5-min Rain = 0.01
KAMH 060355Z 30011KT 19/17 A3004 RMK A01 T01860165  RH  092%=      5-min Rain = 0.01
KAMH 060400Z 29012KT 19/17 A3004 RMK A01 T01910171  RH  092%=      5-min Rain = 0
KAMH 060405Z 30012KT 19/17 A3003 RMK A01 T01930172  RH  092%=      5-min Rain = 0
KAMH 060410Z 30012KT 19/17 A3002 RMK A01 T01940171  RH  091%=      5-min Rain = 0
KAMH 060415Z 30011KT 20/17 A3002 RMK A01 T01990172  RH  089%=      5-min Rain = 0
KAMH 060420Z 32010KT 21/17 A3002 RMK A01 T02060168  RH  083%=      5-min Rain = 0
KAMH 060425Z 01010KT 21/17 A3003 RMK A01 T02110168  RH  081%=      5-min Rain = 0.01
KAMH 060430Z 01012KT 21/17 A3004 RMK A01 T02100167  RH  081%=      5-min Rain = 0
KAMH 060435Z 04007KT 21/16 A3003 RMK A01 T02100163  RH  078%=      5-min Rain = 0
KAMH 060440Z 09010KT 21/17 A3003 RMK A01 T02080168  RH  082%=      5-min Rain = 0.01
KAMH 060445Z 10012KT 21/17 A3001 RMK A01 T02100167  RH  081%=      5-min Rain = 0.02
KAMH 060450Z 09008KT 21/17 A3001 RMK A01 T02100166  RH  080%=      5-min Rain = 0.01
KAMH 060455Z 09012KT 20/17 A3001 RMK A01 T02040169  RH  084%=      5-min Rain = 0.01

Page generated in 0.0094 seconds.